Time;durP1;ratioP1;P1;durP2;ratioP2;P2;SDS_P1;SDS_P2;PMS_P1;PMS_P2;Temp;Humidity;BMP_temperature;BMP_pressure;BME280_temperature;BME280_humidity;BME280_pressure;Samples;Min_cycle;Max_cycle;Signal;HPM_P1;HPM_P2
2024/04/16 00:01:23;;;;;;;13.57;3.42;;;;;;;11.44;55.36;100183.47;5335248;26;94963;-86
2024/04/16 00:03:49;;;;;;;11.23;2.50;;;;;;;11.48;55.09;100185.22;5333160;26;95470;-86
2024/04/16 00:06:14;;;;;;;13.93;2.05;;;;;;;11.51;54.87;100182.59;5303113;26;97853;-85
2024/04/16 00:08:39;;;;;;;10.07;2.30;;;;;;;11.54;54.70;100179.97;5301356;26;94863;-85
2024/04/16 00:11:05;;;;;;;11.15;1.65;;;;;;;11.55;54.68;100173.88;5328390;26;94755;-86
2024/04/16 00:13:30;;;;;;;11.73;2.03;;;;;;;11.56;54.40;100161.69;5333729;26;97746;-86
2024/04/16 00:16:18;;;;;;;7.95;2.55;;;;;;;11.59;54.28;100162.56;5322698;26;97472;-86
2024/04/16 00:18:45;;;;;;;12.60;2.45;;;;;;;11.62;54.23;100159.03;5307374;26;94724;-85
2024/04/16 00:21:11;;;;;;;12.35;2.83;;;;;;;11.65;54.66;100164.28;5325702;26;94951;-86
2024/04/16 00:23:36;;;;;;;13.02;2.22;;;;;;;11.68;54.13;100171.25;5300237;26;95748;-86
2024/04/16 00:33:50;;;;;;;8.75;1.50;;;;;;;11.61;54.05;100150.34;5331916;21;97014;-86
2024/04/16 00:36:16;;;;;;;12.98;2.38;;;;;;;11.58;54.55;100141.66;5345710;26;98017;-86
2024/04/16 00:38:46;;;;;;;12.85;2.50;;;;;;;11.56;54.25;100136.44;5374106;26;98162;-84
2024/04/16 00:41:11;;;;;;;10.75;2.45;;;;;;;11.57;54.45;100130.34;5392681;26;94763;-85
2024/04/16 00:43:37;;;;;;;13.07;2.40;;;;;;;11.58;54.36;100132.06;5341554;26;94949;-85
2024/04/16 00:46:04;;;;;;;11.52;1.65;;;;;;;11.59;54.22;100140.78;5372528;26;95905;-84
2024/04/16 00:48:30;;;;;;;9.52;1.73;;;;;;;11.57;54.06;100119.91;5400932;26;95947;-85
2024/04/16 00:50:56;;;;;;;10.05;1.75;;;;;;;11.59;54.51;100119.91;5358815;26;94922;-85
2024/04/16 00:53:23;;;;;;;7.88;1.35;;;;;;;11.59;53.98;100114.69;5372573;26;94942;-85
2024/04/16 00:55:50;;;;;;;7.05;1.95;;;;;;;11.58;53.87;100116.41;5355450;26;98469;-86
2024/04/16 00:58:17;;;;;;;11.00;1.70;;;;;;;11.56;54.00;100104.22;5330204;26;98370;-84
2024/04/16 01:00:44;;;;;;;14.02;1.92;;;;;;;11.54;53.84;100099.00;5331106;26;94816;-85
2024/04/16 01:03:09;;;;;;;8.27;2.05;;;;;;;11.52;53.88;100092.06;5375932;26;94946;-86
2024/04/16 01:05:35;;;;;;;7.25;2.17;;;;;;;11.51;54.08;100092.94;5336017;26;95570;-85
2024/04/16 01:08:01;;;;;;;8.38;1.55;;;;;;;11.50;54.02;100102.50;5327607;26;97869;-85
2024/04/16 01:10:27;;;;;;;9.60;1.73;;;;;;;11.48;54.04;100087.69;5358008;26;94793;-85
2024/04/16 01:12:52;;;;;;;8.43;2.60;;;;;;;11.43;53.81;100093.81;5358989;26;94693;-87
2024/04/16 01:15:18;;;;;;;8.07;1.67;;;;;;;11.40;54.08;100099.03;5365728;26;98559;-85
2024/04/16 01:17:44;;;;;;;7.53;1.85;;;;;;;11.37;53.97;100086.03;5372218;26;95663;-85
2024/04/16 01:20:09;;;;;;;8.73;2.35;;;;;;;11.36;53.93;100091.25;5372876;26;94861;-86
2024/04/16 01:22:35;;;;;;;9.30;1.95;;;;;;;11.35;54.27;100092.97;5369054;26;95004;-85
2024/04/16 01:25:00;;;;;;;7.03;1.60;;;;;;;11.35;54.25;100090.34;5371478;26;97702;-85
2024/04/16 01:27:26;;;;;;;10.02;1.25;;;;;;;11.36;54.32;100094.72;5389107;26;98541;-85
2024/04/16 01:29:51;;;;;;;10.48;1.45;;;;;;;11.36;54.45;100080.78;5374970;26;94801;-85
2024/04/16 01:32:17;;;;;;;7.97;2.00;;;;;;;11.34;54.33;100075.56;5400114;26;95025;-85
2024/04/16 01:34:42;;;;;;;6.75;1.80;;;;;;;11.32;54.29;100079.94;5359860;26;98377;-84
2024/04/16 01:37:08;;;;;;;5.18;1.40;;;;;;;11.30;54.25;100075.56;5371581;26;95857;-85
2024/04/16 01:39:33;;;;;;;8.07;1.98;;;;;;;11.27;54.39;100083.44;5342316;26;94875;-84
2024/04/16 01:41:59;;;;;;;5.15;1.35;;;;;;;11.18;54.75;100103.47;5381581;26;95066;-84
2024/04/16 01:44:24;;;;;;;11.52;1.70;;;;;;;11.09;54.84;100120.84;5359297;26;97621;-84
2024/04/16 01:46:50;;;;;;;5.35;0.70;;;;;;;10.95;54.46;100118.28;5362156;26;97717;-83
2024/04/16 01:49:15;;;;;;;4.03;0.70;;;;;;;10.74;54.70;100108.72;5369933;26;94729;-84
2024/04/16 01:51:41;;;;;;;4.60;1.38;;;;;;;10.53;54.47;100104.34;5341865;26;94786;-84
2024/04/16 01:54:06;;;;;;;2.95;0.63;;;;;;;10.35;55.22;100097.38;5342531;26;97796;-83
2024/04/16 01:56:32;;;;;;;2.10;1.00;;;;;;;10.20;55.29;100091.25;5354041;26;95885;-83
2024/04/16 01:58:57;;;;;;;3.70;0.60;;;;;;;10.08;55.68;100094.69;5369363;26;94903;-83
2024/04/16 02:01:22;;;;;;;5.78;1.10;;;;;;;9.99;55.68;100088.59;5351465;26;94940;-83
2024/04/16 02:03:48;;;;;;;2.45;1.08;;;;;;;9.94;55.97;100087.69;5367478;26;95925;-84
2024/04/16 02:06:14;;;;;;;4.50;1.38;;;;;;;9.89;56.58;100095.50;5365173;26;97506;-84
2024/04/16 02:08:39;;;;;;;3.53;0.85;;;;;;;9.86;56.51;100085.94;5326195;26;95227;-83
2024/04/16 02:11:05;;;;;;;5.15;1.00;;;;;;;9.85;56.85;100091.16;5342540;26;94951;-84
2024/04/16 02:13:30;;;;;;;2.13;0.70;;;;;;;9.82;56.79;100085.91;5363113;26;96004;-85
2024/04/16 02:15:56;;;;;;;2.60;1.23;;;;;;;9.78;57.14;100081.56;5399446;26;97477;-84
2024/04/16 02:18:21;;;;;;;3.17;0.57;;;;;;;9.76;57.16;100076.34;5380807;26;94904;-84
2024/04/16 02:20:47;;;;;;;3.40;1.27;;;;;;;9.74;57.24;100078.09;5379123;26;94810;-84
2024/04/16 02:23:13;;;;;;;4.80;1.23;;;;;;;9.70;57.09;100058.97;5364855;26;97623;-84
2024/04/16 02:25:45;;;;;;;6.60;1.10;;;;;;;9.66;57.15;100066.75;5394453;26;95870;-84
2024/04/16 02:28:11;;;;;;;2.88;1.25;;;;;;;9.65;57.21;100058.09;5392452;26;94903;-84
2024/04/16 02:30:37;;;;;;;3.42;1.15;;;;;;;9.65;57.45;100054.63;5328946;26;95003;-84
2024/04/16 02:33:03;;;;;;;3.65;1.02;;;;;;;9.62;57.19;100050.25;5358475;26;95506;-83
2024/04/16 02:35:31;;;;;;;5.13;0.90;;;;;;;9.58;57.37;100045.91;5373026;26;96877;-83
2024/04/16 02:37:56;;;;;;;1.52;0.50;;;;;;;9.57;57.34;100038.94;5343569;26;94788;-83
2024/04/16 02:40:22;;;;;;;5.05;1.10;;;;;;;9.53;57.47;100038.06;5371341;26;94893;-83
2024/04/16 02:42:47;;;;;;;3.83;1.33;;;;;;;9.51;57.41;100045.00;5360435;26;94858;-83
2024/04/16 02:45:13;;;;;;;6.60;1.90;;;;;;;9.47;57.32;100040.66;5383660;26;98431;-84
2024/04/16 02:47:38;;;;;;;3.05;1.05;;;;;;;9.47;57.61;100039.81;5356867;26;94770;-83
2024/04/16 02:50:04;;;;;;;3.95;1.13;;;;;;;9.43;57.34;100041.53;5363853;26;95036;-84
2024/04/16 02:52:30;;;;;;;3.95;1.00;;;;;;;9.44;57.60;100047.59;5366389;26;95576;-84
2024/04/16 02:54:56;;;;;;;3.17;1.20;;;;;;;9.44;57.79;100047.59;5365978;26;98031;-84
2024/04/16 02:57:22;;;;;;;3.88;0.90;;;;;;;9.44;57.64;100032.84;5332337;26;94978;-83
2024/04/16 02:59:48;;;;;;;3.88;0.95;;;;;;;9.43;57.79;100038.91;5328847;26;95079;-84
2024/04/16 03:02:14;;;;;;;2.83;1.38;;;;;;;9.42;58.07;100031.09;5387576;26;95715;-83
2024/04/16 03:04:40;;;;;;;1.55;0.80;;;;;;;9.41;58.06;100040.66;5366581;26;98032;-83
2024/04/16 03:07:05;;;;;;;4.93;1.05;;;;;;;9.43;57.95;100031.09;5371452;26;94906;-84
2024/04/16 03:09:31;;;;;;;3.95;0.95;;;;;;;9.44;58.20;100017.22;5371592;26;94986;-83
2024/04/16 03:11:56;;;;;;;5.53;1.73;;;;;;;9.45;58.24;99995.53;5356662;26;97777;-84
2024/04/16 03:14:21;;;;;;;6.82;1.02;;;;;;;9.46;58.52;100009.41;5376936;26;95830;-84
2024/04/16 03:16:47;;;;;;;5.20;2.00;;;;;;;9.45;58.50;100002.50;5383655;26;94813;-83
2024/04/16 03:19:12;;;;;;;6.60;1.55;;;;;;;9.44;58.54;99999.00;5366692;26;101957;-84
2024/04/16 03:21:38;;;;;;;5.80;1.58;;;;;;;9.44;58.70;99980.78;5370459;26;97583;-83
2024/04/16 03:24:03;;;;;;;7.78;1.30;;;;;;;9.48;58.90;99981.66;5390171;26;95536;-84
2024/04/16 03:26:29;;;;;;;5.88;2.10;;;;;;;9.50;59.02;99972.09;5368306;26;94870;-84
2024/04/16 03:28:54;;;;;;;6.40;1.80;;;;;;;9.52;58.92;99966.06;5355912;26;94815;-83
2024/04/16 03:31:19;;;;;;;2.80;1.13;;;;;;;9.54;58.85;99966.06;5384821;26;97552;-83
2024/04/16 03:33:45;;;;;;;5.85;0.95;;;;;;;9.56;58.66;99956.53;5364645;26;95774;-83
2024/04/16 03:36:10;;;;;;;6.28;1.00;;;;;;;9.57;58.88;99957.38;5384072;26;94745;-84
2024/04/16 03:38:36;;;;;;;4.95;1.13;;;;;;;9.58;58.92;99951.31;5386111;26;94888;-83
2024/04/16 03:41:01;;;;;;;11.77;2.40;;;;;;;9.58;58.94;99953.91;5364019;26;98442;-83
2024/04/16 03:43:27;;;;;;;4.10;1.60;;;;;;;9.60;59.19;99945.25;5381151;26;96074;-83
2024/04/16 03:45:59;;;;;;;5.35;1.30;;;;;;;9.62;59.34;99942.63;5354781;26;94712;-83
2024/04/16 03:48:25;;;;;;;6.05;1.52;;;;;;;9.64;59.08;99938.31;5356428;26;95010;-83
2024/04/16 03:50:50;;;;;;;8.48;1.40;;;;;;;9.66;59.08;99945.25;5358700;26;98403;-84
2024/04/16 03:53:16;;;;;;;10.45;1.67;;;;;;;9.67;59.21;99928.75;5367460;26;95738;-84
2024/04/16 03:55:41;;;;;;;7.38;2.17;;;;;;;9.70;59.35;99947.00;5389145;26;94892;-85
2024/04/16 03:58:07;;;;;;;7.80;1.60;;;;;;;9.71;59.45;99947.84;5356901;26;94913;-85
2024/04/16 04:03:17;;;;;;;9.35;1.65;;;;;;;9.72;59.88;99936.59;5357736;26;98716;-85
2024/04/16 04:05:43;;;;;;;11.75;2.65;;;;;;;9.72;59.78;99932.25;5367257;26;94755;-85
2024/04/16 04:08:09;;;;;;;7.15;1.90;;;;;;;9.73;59.48;99925.28;5364041;26;94842;-84
2024/04/16 04:10:34;;;;;;;4.20;1.30;;;;;;;9.70;59.38;99918.34;5351610;26;98468;-85
2024/04/16 04:13:00;;;;;;;3.55;1.05;;;;;;;9.70;59.57;99920.97;5377789;26;95605;-85
2024/04/16 04:15:26;;;;;;;3.85;1.58;;;;;;;9.69;59.66;99914.00;5390961;26;94778;-86
2024/04/16 04:17:51;;;;;;;7.55;1.00;;;;;;;9.69;59.81;99914.00;5356714;26;94861;-85
2024/04/16 04:20:17;;;;;;;4.53;1.60;;;;;;;9.67;59.76;99920.94;5371087;26;98122;-85
2024/04/16 04:22:43;;;;;;;3.13;1.45;;;;;;;9.65;59.91;99904.47;5354886;26;98111;-85
2024/04/16 04:25:08;;;;;;;5.88;1.13;;;;;;;9.64;60.11;99894.03;5348058;26;94845;-85
2024/04/16 04:27:34;;;;;;;3.78;0.93;;;;;;;9.62;59.80;99896.63;5386835;26;94852;-86
2024/04/16 04:29:59;;;;;;;4.30;1.10;;;;;;;9.60;60.03;99890.56;5360989;26;94948;-86
2024/04/16 04:32:25;;;;;;;7.35;1.00;;;;;;;9.59;59.86;99873.22;5366756;26;97418;-85
2024/04/16 04:34:55;;;;;;;4.78;1.05;;;;;;;9.58;60.32;99871.47;5385760;26;95008;-86
2024/04/16 04:37:21;;;;;;;3.95;1.42;;;;;;;9.58;60.15;99866.25;5359282;26;94882;-86
2024/04/16 04:39:46;;;;;;;2.83;1.15;;;;;;;9.57;60.29;99867.13;5380139;26;98341;-84
2024/04/16 04:42:12;;;;;;;9.77;1.48;;;;;;;9.54;60.11;99841.09;5348473;26;95599;-87
2024/04/16 04:44:37;;;;;;;4.45;0.90;;;;;;;9.51;60.08;99820.28;5390426;26;94871;-85
2024/04/16 04:47:02;;;;;;;2.67;1.08;;;;;;;9.48;60.45;99828.97;5369411;26;94928;-84
2024/04/16 04:49:28;;;;;;;3.30;1.33;;;;;;;9.47;60.35;99813.34;5361800;26;95915;-86
2024/04/16 04:51:53;;;;;;;4.13;1.23;;;;;;;9.46;60.60;99808.97;5369753;26;98589;-94
2024/04/16 04:54:19;;;;;;;3.60;1.15;;;;;;;9.44;60.63;99803.78;5391381;26;94741;-94
2024/04/16 04:56:45;;;;;;;4.53;0.80;;;;;;;9.44;60.75;99792.50;5379890;26;94730;-95
2024/04/16 04:59:10;;;;;;;6.03;0.70;;;;;;;9.43;61.05;99791.66;5374199;26;98436;-94
2024/04/16 05:01:35;;;;;;;4.45;1.00;;;;;;;9.43;61.05;99790.75;5374981;26;98788;-94
2024/04/16 05:04:01;;;;;;;4.10;1.10;;;;;;;9.42;61.04;99792.50;5382222;26;94802;-95
2024/04/16 05:06:26;;;;;;;7.28;1.10;;;;;;;9.44;61.02;99795.97;5356702;26;95016;-94
2024/04/16 05:08:52;;;;;;;6.38;2.35;;;;;;;9.47;61.29;99792.50;5368079;26;98307;-91
2024/04/16 05:11:17;;;;;;;7.00;1.10;;;;;;;9.48;61.33;99802.03;5336453;26;95960;-93
2024/04/16 05:13:43;;;;;;;5.32;1.63;;;;;;;9.50;61.78;99816.81;5350946;26;94876;-92
2024/04/16 05:16:08;;;;;;;5.28;1.42;;;;;;;9.54;61.70;99802.06;5370764;26;94997;-94
2024/04/16 05:18:33;;;;;;;3.80;1.30;;;;;;;9.60;61.63;99807.25;5368645;26;98476;-94
2024/04/16 05:21:00;;;;;;;4.72;1.00;;;;;;;9.64;61.90;99814.22;5373440;26;96766;-89
2024/04/16 05:23:28;;;;;;;8.52;1.42;;;;;;;9.71;62.23;99815.94;5366647;26;94792;-93
2024/04/16 05:25:55;;;;;;;9.27;2.25;;;;;;;9.78;62.26;99803.75;5369799;26;94887;-92
2024/04/16 05:28:21;;;;;;;8.20;1.45;;;;;;;9.85;62.69;99812.44;5373917;26;98704;-92
2024/04/16 05:30:47;;;;;;;17.33;2.83;;;;;;;9.94;62.63;99814.19;5400575;26;97585;-92
2024/04/16 05:33:12;;;;;;;14.20;3.22;;;;;;;10.01;62.88;99819.38;5405650;26;94645;-92
2024/04/16 05:35:38;;;;;;;7.68;1.60;;;;;;;10.11;62.94;99825.44;5370818;26;94904;-92
2024/04/16 05:38:04;;;;;;;14.18;2.83;;;;;;;10.20;62.83;99830.63;5407339;26;97560;-92
2024/04/16 05:40:30;;;;;;;14.07;2.65;;;;;;;10.31;63.04;99829.75;5347767;26;95897;-92
2024/04/16 05:42:55;;;;;;;11.73;2.08;;;;;;;10.41;63.48;99841.88;5377578;26;94764;-91
2024/04/16 05:45:21;;;;;;;18.02;2.70;;;;;;;10.51;63.23;99842.75;5360512;26;95077;-93
2024/04/16 05:47:46;;;;;;;12.40;2.80;;;;;;;10.60;63.03;99842.72;5395146;26;94779;-92
2024/04/16 05:50:12;;;;;;;11.60;3.33;;;;;;;10.67;63.15;99834.00;5322313;26;98824;-93
2024/04/16 05:52:37;;;;;;;10.02;3.25;;;;;;;10.77;63.05;99838.31;5366322;26;94743;-92
2024/04/16 05:55:05;;;;;;;13.75;2.85;;;;;;;10.86;63.23;99853.91;5375859;26;94649;-94
2024/04/16 05:57:31;;;;;;;11.75;2.83;;;;;;;10.92;62.80;99854.75;5374504;26;96541;-92
2024/04/16 05:59:57;;;;;;;12.63;2.55;;;;;;;11.01;62.98;99849.47;5345761;26;94664;-94
2024/04/16 06:02:22;;;;;;;14.43;2.65;;;;;;;11.08;62.76;99866.84;5362000;26;94968;-95
2024/04/16 06:04:48;;;;;;;9.10;2.58;;;;;;;11.15;62.59;99873.75;5401400;26;94835;-89
2024/04/16 06:07:13;;;;;;;13.68;2.20;;;;;;;11.22;62.73;99875.47;5374177;26;97556;-94
2024/04/16 06:09:39;;;;;;;12.88;2.55;;;;;;;11.28;62.63;99878.91;5343119;26;98516;-93
2024/04/16 06:12:04;;;;;;;12.38;2.20;;;;;;;11.33;62.52;99877.16;5365290;26;94704;-94
2024/04/16 06:14:30;;;;;;;9.23;1.55;;;;;;;11.38;62.57;99881.47;5368160;26;94811;-92
2024/04/16 06:16:58;;;;;;;11.05;2.75;;;;;;;11.42;62.63;99877.94;5331925;26;96643;-94
2024/04/16 06:19:23;;;;;;;9.90;2.53;;;;;;;11.47;62.35;99875.31;5389973;26;96783;-94
2024/04/16 06:21:49;;;;;;;13.73;2.55;;;;;;;11.50;62.19;99884.91;5339627;26;94659;-94
2024/04/16 06:24:14;;;;;;;11.10;1.60;;;;;;;11.54;62.12;99870.94;5340902;26;94916;-93
2024/04/16 06:26:40;;;;;;;10.35;1.85;;;;;;;11.55;61.87;99881.38;5339643;26;95826;-93
2024/04/16 06:29:05;;;;;;;9.55;2.10;;;;;;;11.59;61.81;99880.47;5389224;26;94813;-93
2024/04/16 06:31:31;;;;;;;6.93;2.03;;;;;;;11.62;61.82;99893.50;5360412;26;94730;-93
2024/04/16 06:33:57;;;;;;;10.10;2.22;;;;;;;11.67;61.83;99887.38;5370069;26;94749;-94
2024/04/16 06:36:22;;;;;;;13.20;2.10;;;;;;;11.69;61.96;99909.97;5358505;26;97342;-93
2024/04/16 06:38:48;;;;;;;14.55;2.40;;;;;;;11.71;61.77;99917.81;5357965;26;97825;-95
2024/04/16 06:41:13;;;;;;;15.23;2.35;;;;;;;11.72;61.56;99922.19;5342592;26;94840;-89
2024/04/16 06:43:39;;;;;;;18.35;3.00;;;;;;;11.71;61.64;99925.66;5363880;26;94745;-91
2024/04/16 06:46:04;;;;;;;19.17;2.72;;;;;;;11.71;61.81;99938.72;5327600;26;98093;-91
2024/04/16 06:48:30;;;;;;;11.02;2.45;;;;;;;11.70;61.84;99956.13;5369245;26;95533;-93
2024/04/16 06:50:59;;;;;;;13.68;2.80;;;;;;;11.69;61.82;99946.56;5377392;26;94650;-96
2024/04/16 06:53:25;;;;;;;18.17;2.67;;;;;;;11.64;61.79;99945.75;5360013;26;95070;-92
2024/04/16 06:56:05;;;;;;;11.90;2.40;;;;;;;11.59;62.03;99955.34;5339667;26;98427;-94
2024/04/16 06:58:34;;;;;;;12.65;2.13;;;;;;;11.57;62.35;99947.50;5341191;26;98419;-92
2024/04/16 07:01:00;;;;;;;14.88;2.33;;;;;;;11.55;62.34;99954.50;5389018;26;94832;-93
2024/04/16 07:03:26;;;;;;;19.02;3.80;;;;;;;11.53;62.68;99943.19;5354892;26;94944;-91
2024/04/16 07:05:52;;;;;;;12.85;3.03;;;;;;;11.54;62.56;99944.91;5381181;26;97211;-91
2024/04/16 07:08:18;;;;;;;17.75;3.20;;;;;;;11.56;62.58;99953.59;5366792;26;97020;-93
2024/04/16 07:10:47;;;;;;;16.67;3.22;;;;;;;11.59;62.81;99963.19;5357794;26;94753;-94
2024/04/16 07:13:14;;;;;;;16.45;3.38;;;;;;;11.60;62.76;99960.56;5359916;26;94991;-94
2024/04/16 07:15:39;;;;;;;16.27;2.85;;;;;;;11.61;62.91;99967.50;5351216;26;98590;-92
2024/04/16 07:18:05;;;;;;;13.40;3.33;;;;;;;11.63;62.71;99970.97;5398048;26;98575;-92
2024/04/16 07:20:31;;;;;;;12.98;2.45;;;;;;;11.65;62.69;99967.50;5371641;26;94820;-92
2024/04/16 07:22:57;;;;;;;10.88;2.72;;;;;;;11.66;62.92;99949.22;5376632;26;94823;-93
2024/04/16 07:25:23;;;;;;;13.85;2.35;;;;;;;11.73;63.94;99960.47;5372927;26;98073;-92
2024/04/16 07:27:48;;;;;;;13.90;3.83;;;;;;;11.85;63.99;99968.22;5371375;26;98463;-93
2024/04/16 07:30:14;;;;;;;12.52;3.08;;;;;;;11.93;63.52;99978.69;5387092;26;94790;-93
2024/04/16 07:32:40;;;;;;;14.73;2.42;;;;;;;11.99;63.40;99976.88;5378685;26;94885;-93
2024/04/16 07:35:05;;;;;;;11.35;2.55;;;;;;;12.06;63.09;99976.84;5358193;26;98204;-93
2024/04/16 07:37:31;;;;;;;11.50;3.22;;;;;;;12.11;63.05;99964.59;5349247;26;98361;-92
2024/04/16 07:39:56;;;;;;;14.25;3.22;;;;;;;12.14;62.74;99968.06;5372252;26;94724;-93
2024/04/16 07:42:22;;;;;;;12.95;3.40;;;;;;;12.15;62.51;99980.25;5386820;26;94639;-93
2024/04/16 07:44:47;;;;;;;11.32;3.10;;;;;;;12.17;62.52;99969.78;5353181;26;98292;-93
2024/04/16 07:47:13;;;;;;;14.85;3.38;;;;;;;12.17;62.25;99985.47;5365978;26;96079;-93
2024/04/16 07:49:38;;;;;;;16.95;2.67;;;;;;;12.16;62.36;99982.00;5375312;26;94881;-94
2024/04/16 07:52:05;;;;;;;16.75;3.15;;;;;;;12.14;62.29;99993.34;5397114;26;94881;-93
2024/04/16 07:54:31;;;;;;;13.68;2.33;;;;;;;12.14;62.31;99998.56;5394358;26;98431;-94
2024/04/16 07:56:56;;;;;;;14.75;2.53;;;;;;;12.11;62.17;99999.44;5400792;26;97643;-92
2024/04/16 07:59:22;;;;;;;14.27;2.63;;;;;;;12.09;62.45;100008.19;5358417;26;94891;-91
2024/04/16 08:01:47;;;;;;;15.38;2.95;;;;;;;12.06;62.32;100032.59;5371541;26;95024;-93
2024/04/16 08:04:13;;;;;;;13.60;2.80;;;;;;;12.02;62.25;100036.09;5356032;26;97366;-92
2024/04/16 08:06:38;;;;;;;11.00;3.00;;;;;;;12.00;62.61;100062.25;5373808;26;94719;-92
2024/04/16 08:09:04;;;;;;;11.38;2.35;;;;;;;11.98;62.81;100060.53;5363237;26;94692;-93
2024/04/16 08:11:29;;;;;;;7.57;2.17;;;;;;;11.92;62.51;100073.63;5407913;26;94901;-94
2024/04/16 08:13:55;;;;;;;9.85;1.83;;;;;;;11.85;62.48;100079.72;5376249;26;98604;-94
2024/04/16 08:16:24;;;;;;;11.13;1.70;;;;;;;11.79;62.66;100084.09;5376481;26;98078;-92
2024/04/16 08:18:50;;;;;;;12.15;2.30;;;;;;;11.77;62.97;100080.63;5376849;26;94890;-93
2024/04/16 08:21:15;;;;;;;7.22;1.42;;;;;;;11.76;63.31;100088.47;5371190;26;94961;-93
2024/04/16 08:23:41;;;;;;;11.05;2.45;;;;;;;11.77;63.62;100095.44;5341992;26;95930;-93
2024/04/16 08:26:07;;;;;;;7.00;2.08;;;;;;;11.80;63.72;100098.06;5359472;26;98010;-93
2024/04/16 08:28:33;;;;;;;9.90;1.95;;;;;;;11.87;65.03;100107.59;5356530;26;94732;-93
2024/04/16 08:30:59;;;;;;;8.13;1.75;;;;;;;12.15;66.23;100108.34;5371433;26;94929;-95
2024/04/16 08:33:25;;;;;;;9.38;1.92;;;;;;;12.41;65.79;100109.09;5370011;26;95543;-93
2024/04/16 08:35:51;;;;;;;8.75;1.77;;;;;;;12.67;66.30;100120.19;5391792;26;97720;-93
2024/04/16 08:38:18;;;;;;;7.47;2.00;;;;;;;13.11;67.62;100116.34;5342192;26;94747;-92
2024/04/16 08:40:45;;;;;;;11.52;1.85;;;;;;;14.00;68.00;100118.88;5346723;26;94990;-92
2024/04/16 08:43:11;;;;;;;12.73;2.65;;;;;;;14.60;66.66;100126.81;5374912;26;96684;-91
2024/04/16 08:45:37;;;;;;;13.13;1.77;;;;;;;14.83;65.04;100126.44;5375702;26;94818;-91
2024/04/16 08:48:04;;;;;;;10.25;1.55;;;;;;;14.82;63.73;100123.81;5406270;26;94729;-93
2024/04/16 08:50:30;;;;;;;6.80;2.30;;;;;;;14.88;63.59;100135.97;5340635;26;94965;-93
2024/04/16 08:52:58;;;;;;;10.63;1.73;;;;;;;14.91;63.41;100147.31;5339769;26;98553;-92
2024/04/16 08:55:26;;;;;;;9.75;2.13;;;;;;;15.08;63.94;100144.41;5389589;26;97207;-92
2024/04/16 08:57:52;;;;;;;13.70;2.92;;;;;;;15.37;64.12;100145.66;5373377;26;94752;-93
2024/04/16 09:00:18;;;;;;;7.13;2.05;;;;;;;15.47;62.59;100147.22;5402041;26;95093;-93
2024/04/16 09:02:47;;;;;;;9.25;2.05;;;;;;;15.51;61.73;100154.13;5327781;26;96563;-92
2024/04/16 09:05:16;;;;;;;5.38;1.80;;;;;;;15.55;61.50;100168.09;5337251;26;98551;-93
2024/04/16 09:07:41;;;;;;;;;;;;;;;15.52;61.43;100176.03;5372042;26;95033;-93
2024/04/16 09:10:20;;;;;;;7.60;1.88;;;;;;;15.52;60.75;100183.91;5321483;26;95575;-95
2024/04/16 09:12:46;;;;;;;7.18;1.15;;;;;;;15.61;61.52;100182.00;5401975;26;95891;-92
2024/04/16 09:15:12;;;;;;;5.55;1.00;;;;;;;15.75;60.96;100188.78;5341425;26;97265;-93
2024/04/16 09:17:51;;;;;;;5.00;1.70;;;;;;;15.87;60.94;100191.16;5361537;26;94712;-95
2024/04/16 09:20:21;;;;;;;5.60;1.30;;;;;;;15.96;60.80;100196.22;5370136;26;94706;-94
2024/04/16 09:22:48;;;;;;;6.95;1.08;;;;;;;15.96;59.33;100198.00;5395617;26;98758;-92
2024/04/16 09:25:15;;;;;;;4.38;1.02;;;;;;;15.90;59.44;100208.63;5373651;26;98521;-94
2024/04/16 09:27:40;;;;;;;5.20;1.30;;;;;;;15.95;59.87;100206.78;5349345;26;94834;-92
2024/04/16 09:30:09;;;;;;;6.15;1.05;;;;;;;15.95;59.14;100217.31;5324114;26;94740;-94
2024/04/16 09:32:36;;;;;;;5.55;0.90;;;;;;;15.87;58.73;100217.47;5362055;26;97678;-94
2024/04/16 09:35:01;;;;;;;5.18;1.63;;;;;;;15.79;58.33;100228.13;5363750;26;97503;-94
2024/04/16 09:37:26;;;;;;;4.70;1.40;;;;;;;15.74;58.51;100221.16;5399725;26;94777;-93
2024/04/16 09:39:53;;;;;;;6.38;1.52;;;;;;;15.81;59.16;100230.75;5374886;26;94962;-94
2024/04/16 09:42:21;;;;;;;6.57;1.60;;;;;;;15.87;58.61;100233.25;5375414;26;97278;-94
2024/04/16 09:44:48;;;;;;;8.68;1.63;;;;;;;15.96;59.05;100233.06;5372100;26;96574;-94
2024/04/16 09:47:18;;;;;;;4.35;1.40;;;;;;;16.14;58.90;100244.97;5319679;26;94757;-93
2024/04/16 09:49:44;;;;;;;6.00;1.40;;;;;;;16.25;57.84;100252.66;5364424;26;94816;-94
2024/04/16 09:52:13;;;;;;;6.13;1.40;;;;;;;16.22;56.70;100252.75;5353211;26;98774;-93
2024/04/16 09:54:43;;;;;;;7.43;1.23;;;;;;;16.14;56.14;100263.41;5405572;26;97839;-94
2024/04/16 09:57:10;;;;;;;8.35;2.17;;;;;;;15.95;55.73;100275.16;5372785;26;94749;-94
2024/04/16 09:59:40;;;;;;;7.10;1.02;;;;;;;15.73;56.58;100278.16;5336493;26;94727;-94
2024/04/16 10:02:08;;;;;;;5.05;1.42;;;;;;;15.74;57.26;100279.00;5378322;26;94809;-94
2024/04/16 10:04:34;;;;;;;6.03;1.65;;;;;;;15.82;57.05;100273.66;5377669;26;94783;-91
2024/04/16 10:06:59;;;;;;;2.53;1.02;;;;;;;15.93;57.48;100287.47;5338414;26;94892;-92
2024/04/16 10:09:25;;;;;;;4.00;1.10;;;;;;;16.13;56.59;100289.72;5366989;26;94971;-89
2024/04/16 10:11:51;;;;;;;7.93;1.55;;;;;;;16.27;56.55;100302.63;5364392;26;95992;-92
2024/04/16 10:14:19;;;;;;;2.33;0.73;;;;;;;16.28;55.70;100302.59;5341768;26;97760;-89
2024/04/16 10:16:47;;;;;;;5.72;1.23;;;;;;;16.22;55.23;100297.47;5333854;26;94816;-90
2024/04/16 10:19:14;;;;;;;4.53;1.70;;;;;;;16.18;55.84;100304.56;5384071;26;94874;-89
2024/04/16 10:21:46;;;;;;;4.57;1.05;;;;;;;16.27;55.87;100307.88;5337389;26;95817;-89
2024/04/16 10:24:15;;;;;;;3.58;0.77;;;;;;;16.27;55.24;100306.13;5355455;26;97873;-90
2024/04/16 10:26:41;;;;;;;;;;;;;;;16.18;55.78;100319.47;5339703;26;94818;-93
2024/04/16 10:29:39;;;;;;;6.15;1.58;;;;;;;16.10;55.01;100324.88;5343971;26;94952;-93
2024/04/16 10:32:05;;;;;;;7.10;1.42;;;;;;;16.02;55.14;100318.88;5358725;26;96143;-92
2024/04/16 10:34:30;;;;;;;5.57;1.10;;;;;;;15.91;54.33;100326.09;5373058;26;94823;-92
2024/04/16 10:36:56;;;;;;;2.95;0.63;;;;;;;15.76;54.58;100335.13;5373717;26;94957;-92
2024/04/16 10:39:31;;;;;;;5.47;1.60;;;;;;;15.61;54.08;100338.84;5404318;26;95004;-92
2024/04/16 10:41:58;;;;;;;6.25;1.35;;;;;;;15.53;54.14;100346.00;5327979;26;98375;-92
2024/04/16 10:44:24;;;;;;;5.32;1.38;;;;;;;15.49;54.38;100339.03;5379460;26;97599;-93
2024/04/16 10:46:53;;;;;;;9.48;1.98;;;;;;;15.43;54.34;100358.38;5374480;26;94732;-93
2024/04/16 10:49:22;;;;;;;6.47;1.65;;;;;;;15.39;54.72;100349.69;5374807;26;94979;-92
2024/04/16 10:51:52;;;;;;;8.60;1.80;;;;;;;15.38;54.89;100353.22;5374807;26;95816;-94
2024/04/16 10:54:18;;;;;;;5.07;1.60;;;;;;;15.50;56.28;100354.78;5374182;26;94758;-94
2024/04/16 10:56:45;;;;;;;4.75;1.55;;;;;;;15.78;56.48;100349.97;5369423;26;94657;-93
2024/04/16 10:59:14;;;;;;;4.85;1.10;;;;;;;16.06;56.16;100361.78;5369277;26;94925;-93
2024/04/16 11:01:44;;;;;;;4.90;1.15;;;;;;;16.21;54.97;100356.25;5384261;26;95933;-94
2024/04/16 11:04:11;;;;;;;4.65;1.60;;;;;;;16.26;53.99;100364.06;5405445;26;95965;-93
2024/04/16 11:06:37;;;;;;;5.88;1.55;;;;;;;16.25;53.98;100367.59;5343260;26;94778;-93
2024/04/16 11:09:03;;;;;;;3.72;1.17;;;;;;;16.20;53.40;100377.31;5368672;26;94720;-95
2024/04/16 11:11:33;;;;;;;7.05;1.00;;;;;;;16.10;53.46;100384.53;5375271;26;94608;-93
2024/04/16 11:14:41;;;;;;;5.82;1.83;;;;;;;15.96;53.11;100392.66;5406047;26;98420;-94
2024/04/16 11:17:07;;;;;;;8.48;2.40;;;;;;;15.87;52.48;100387.53;5346383;26;94683;-94
2024/04/16 11:19:33;;;;;;;10.00;1.88;;;;;;;15.76;52.98;100391.22;5346954;26;95007;-95
2024/04/16 11:21:58;;;;;;;7.70;1.30;;;;;;;15.73;53.10;100395.63;5348079;26;95727;-93
2024/04/16 11:24:24;;;;;;;6.82;1.77;;;;;;;15.71;52.81;100397.41;5349349;26;97920;-94
2024/04/16 11:26:49;;;;;;;9.25;1.67;;;;;;;15.66;52.76;100404.50;5409216;26;94866;-94
2024/04/16 11:29:19;;;;;;;6.15;1.38;;;;;;;15.59;53.26;100411.59;5409602;26;94692;-93
2024/04/16 11:31:45;;;;;;;6.93;1.00;;;;;;;15.52;53.04;100409.97;5377438;26;94935;-92
2024/04/16 11:34:11;;;;;;;5.85;1.30;;;;;;;15.52;53.84;100413.44;5379048;26;97917;-93
2024/04/16 11:36:37;;;;;;;6.47;1.35;;;;;;;15.78;54.78;100406.97;5407503;26;94974;-93